Time;durP1;ratioP1;P1;durP2;ratioP2;P2;SDS_P1;SDS_P2;PMS_P1;PMS_P2;Temp;Humidity;BMP_temperature;BMP_pressure;BME280_temperature;BME280_humidity;BME280_pressure;Samples;Min_cycle;Max_cycle;Signal;HPM_P1;HPM_P2
2021/07/15 00:02:05;;;;;;;14.67;12.43;;;;;;;;;;5053287;28;20411;-79
2021/07/15 00:04:34;;;;;;;11.33;10.33;;;;;;;;;;5052989;28;20431;-79
2021/07/15 00:07:00;;;;;;;11.60;10.50;;;;;;;;;;5051934;28;20828;-79
2021/07/15 00:09:26;;;;;;;12.40;10.90;;;;;;;;;;5053097;28;20459;-79
2021/07/15 00:11:52;;;;;;;13.80;11.40;;;;;;;;;;5052206;28;20424;-78
2021/07/15 00:14:19;;;;;;;11.00;10.00;;;;;;;;;;5052722;28;20428;-81
2021/07/15 00:16:45;;;;;;;10.60;9.60;;;;;;;;;;5053050;28;20490;-77
2021/07/15 00:19:14;;;;;;;17.03;10.17;;;;;;;;;;5052907;28;20431;-79
2021/07/15 00:21:40;;;;;;;9.67;8.73;;;;;;;;;;5053069;28;20944;-79
2021/07/15 00:24:07;;;;;;;10.87;8.30;;;;;;;;;;5051554;28;20436;-78
2021/07/15 00:26:33;;;;;;;8.23;7.40;;;;;;;;;;5035294;28;20431;-77
2021/07/15 00:28:59;;;;;;;8.67;7.77;;;;;;;;;;5053235;28;20562;-80
2021/07/15 00:31:25;;;;;;;7.93;7.13;;;;;;;;;;5051928;28;20503;-78
2021/07/15 00:33:51;;;;;;;6.40;5.90;;;;;;;;;;5051500;28;20806;-80
2021/07/15 00:36:17;;;;;;;6.93;6.23;;;;;;;;;;5052990;28;20424;-77
2021/07/15 00:38:43;;;;;;;6.90;5.20;;;;;;;;;;5052959;28;20415;-78
2021/07/15 00:41:09;;;;;;;5.60;5.10;;;;;;;;;;5051686;28;20420;-80
2021/07/15 00:43:35;;;;;;;5.20;4.70;;;;;;;;;;5052603;28;20427;-78
2021/07/15 00:46:01;;;;;;;5.43;4.97;;;;;;;;;;5052856;28;20800;-80
2021/07/15 00:48:27;;;;;;;5.53;4.73;;;;;;;;;;5052737;28;20463;-80
2021/07/15 00:50:53;;;;;;;6.13;4.90;;;;;;;;;;5053007;28;20443;-78
2021/07/15 00:53:20;;;;;;;5.27;4.77;;;;;;;;;;5054441;28;20419;-80
2021/07/15 00:55:46;;;;;;;4.77;4.37;;;;;;;;;;5056501;28;20497;-79
2021/07/15 00:58:14;;;;;;;4.27;3.97;;;;;;;;;;5055382;28;20412;-79
2021/07/15 01:00:43;;;;;;;4.20;3.73;;;;;;;;;;5056631;28;20416;-79
2021/07/15 01:03:10;;;;;;;4.87;4.30;;;;;;;;;;5056974;28;20412;-79
2021/07/15 01:05:40;;;;;;;4.63;4.23;;;;;;;;;;5055071;28;20896;-77
2021/07/15 01:08:06;;;;;;;6.43;3.53;;;;;;;;;;5056505;28;20932;-78
2021/07/15 01:10:37;;;;;;;3.80;3.50;;;;;;;;;;5056427;28;20503;-78
2021/07/15 01:13:08;;;;;;;9.57;3.73;;;;;;;;;;5056146;28;20392;-78
2021/07/15 01:15:53;;;;;;;4.90;3.70;;;;;;;;;;5054873;28;20432;-77
2021/07/15 01:18:23;;;;;;;5.30;4.20;;;;;;;;;;5056278;28;20451;-78
2021/07/15 01:21:08;;;;;;;5.90;4.40;;;;;;;;;;5056365;28;20435;-79
2021/07/15 01:23:37;;;;;;;4.77;4.27;;;;;;;;;;5055852;28;20415;-79
2021/07/15 01:26:35;;;;;;;4.33;3.97;;;;;;;;;;5055857;28;20428;-80
2021/07/15 01:29:11;;;;;;;4.70;3.80;;;;;;;;;;5022627;28;20494;-80
2021/07/15 01:31:39;;;;;;;6.17;3.70;;;;;;;;;;5056075;28;20408;-77
2021/07/15 01:34:05;;;;;;;4.53;4.17;;;;;;;;;;5055519;28;20769;-78
2021/07/15 01:36:35;;;;;;;4.53;3.63;;;;;;;;;;5055845;28;20485;-78
2021/07/15 01:39:06;;;;;;;4.90;4.40;;;;;;;;;;5055852;28;20404;-80
2021/07/15 01:41:34;;;;;;;4.90;4.47;;;;;;;;;;5055805;28;20412;-79
2021/07/15 01:44:01;;;;;;;7.23;5.47;;;;;;;;;;5055414;28;20522;-80
2021/07/15 01:46:28;;;;;;;7.80;4.37;;;;;;;;;;5054535;28;20412;-79
2021/07/15 01:48:54;;;;;;;10.47;5.00;;;;;;;;;;5054554;28;20556;-81
2021/07/15 01:51:21;;;;;;;5.77;5.10;;;;;;;;;;5055747;28;20396;-78
2021/07/15 01:53:48;;;;;;;5.33;4.63;;;;;;;;;;5055289;28;20416;-79
2021/07/15 01:56:16;;;;;;;6.27;4.40;;;;;;;;;;5055635;28;20436;-81
2021/07/15 01:58:43;;;;;;;7.57;5.40;;;;;;;;;;5055640;28;20466;-80
2021/07/15 02:01:10;;;;;;;7.80;5.83;;;;;;;;;;5055539;28;20416;-79
2021/07/15 02:03:38;;;;;;;5.93;5.30;;;;;;;;;;5054566;28;20451;-81
2021/07/15 02:06:05;;;;;;;8.10;6.00;;;;;;;;;;5054662;28;20438;-77
2021/07/15 02:08:32;;;;;;;7.70;5.70;;;;;;;;;;5055537;28;20487;-80
2021/07/15 02:10:59;;;;;;;10.30;5.87;;;;;;;;;;5054230;28;20485;-79
2021/07/15 02:13:25;;;;;;;9.60;7.13;;;;;;;;;;5055051;28;20407;-82
2021/07/15 02:15:52;;;;;;;9.07;6.83;;;;;;;;;;5053980;28;20925;-78
2021/07/15 02:18:19;;;;;;;8.67;6.40;;;;;;;;;;5055060;28;20447;-79
2021/07/15 02:20:46;;;;;;;18.50;8.23;;;;;;;;;;5055257;28;20412;-80
2021/07/15 02:23:13;;;;;;;12.77;7.80;;;;;;;;;;5053519;28;20420;-78
2021/07/15 02:25:41;;;;;;;11.50;8.03;;;;;;;;;;5054874;28;20411;-81
2021/07/15 02:28:08;;;;;;;13.20;8.90;;;;;;;;;;5054739;28;20558;-79
2021/07/15 02:30:34;;;;;;;15.57;9.30;;;;;;;;;;5053727;28;20977;-78
2021/07/15 02:33:06;;;;;;;19.70;12.73;;;;;;;;;;5054769;28;20414;-81
2021/07/15 02:35:35;;;;;;;25.60;13.10;;;;;;;;;;5054730;28;21027;-81
2021/07/15 02:38:02;;;;;;;20.57;12.20;;;;;;;;;;5054950;28;20408;-81
2021/07/15 02:40:28;;;;;;;20.57;10.83;;;;;;;;;;5054772;28;20503;-78
2021/07/15 02:42:54;;;;;;;23.00;10.43;;;;;;;;;;5054594;28;20416;-80
2021/07/15 02:45:21;;;;;;;19.07;9.90;;;;;;;;;;5054747;28;20764;-78
2021/07/15 02:47:48;;;;;;;15.30;10.10;;;;;;;;;;5053320;28;20423;-79
2021/07/15 02:50:16;;;;;;;17.30;11.00;;;;;;;;;;5054532;28;20416;-81
2021/07/15 02:52:44;;;;;;;26.73;12.20;;;;;;;;;;5053115;28;20804;-81
2021/07/15 02:55:11;;;;;;;24.20;13.60;;;;;;;;;;5054648;28;20424;-78
2021/07/15 02:58:16;;;;;;;23.93;14.20;;;;;;;;;;5053354;28;20412;-81
2021/07/15 03:00:45;;;;;;;18.97;12.00;;;;;;;;;;5012771;28;20414;-80
2021/07/15 03:03:15;;;;;;;21.30;12.73;;;;;;;;;;5012337;28;20525;-80
2021/07/15 03:05:49;;;;;;;32.23;13.90;;;;;;;;;;5024185;28;20436;-81
2021/07/15 03:08:20;;;;;;;21.90;13.30;;;;;;;;;;5054195;28;20538;-78
2021/07/15 03:10:48;;;;;;;24.93;13.10;;;;;;;;;;5052909;28;20458;-79
2021/07/15 03:13:14;;;;;;;24.60;13.33;;;;;;;;;;5053999;28;20403;-80
2021/07/15 03:15:42;;;;;;;27.07;13.37;;;;;;;;;;5052282;28;20513;-80
2021/07/15 03:18:08;;;;;;;27.53;12.77;;;;;;;;;;5054007;28;20995;-78
2021/07/15 03:20:35;;;;;;;21.50;13.03;;;;;;;;;;5052560;28;20408;-80
2021/07/15 03:23:05;;;;;;;23.00;12.30;;;;;;;;;;5053661;28;20404;-78
2021/07/15 03:25:32;;;;;;;31.23;13.60;;;;;;;;;;5054161;28;20424;-81
2021/07/15 03:27:59;;;;;;;20.43;12.30;;;;;;;;;;5052398;28;20419;-79
2021/07/15 03:30:29;;;;;;;27.60;13.57;;;;;;;;;;5053722;28;20408;-79
2021/07/15 03:32:55;;;;;;;28.50;15.67;;;;;;;;;;5053263;28;20771;-79
2021/07/15 03:35:22;;;;;;;36.03;16.37;;;;;;;;;;5053571;28;20586;-78
2021/07/15 03:37:48;;;;;;;34.17;17.80;;;;;;;;;;5053660;28;20408;-78
2021/07/15 03:40:16;;;;;;;52.63;21.57;;;;;;;;;;5052487;28;20427;-78
2021/07/15 03:42:43;;;;;;;52.43;22.20;;;;;;;;;;5053380;28;20487;-81
2021/07/15 03:45:09;;;;;;;44.77;20.87;;;;;;;;;;5053452;28;20963;-79
2021/07/15 03:47:36;;;;;;;50.70;21.30;;;;;;;;;;5053828;28;20483;-80
2021/07/15 03:50:03;;;;;;;52.73;22.83;;;;;;;;;;5053688;28;20477;-81
2021/07/15 03:52:29;;;;;;;58.00;22.67;;;;;;;;;;5053358;28;20461;-78
2021/07/15 03:54:56;;;;;;;68.73;22.57;;;;;;;;;;5052942;28;20515;-79
2021/07/15 03:57:25;;;;;;;107.97;26.40;;;;;;;;;;5053406;28;20408;-79
2021/07/15 03:59:52;;;;;;;112.33;25.37;;;;;;;;;;5053425;28;20850;-78
2021/07/15 04:02:19;;;;;;;87.40;23.93;;;;;;;;;;5053295;28;20415;-79
2021/07/15 04:04:49;;;;;;;199.60;28.60;;;;;;;;;;5052737;28;20432;-77
2021/07/15 04:07:17;;;;;;;48.03;20.20;;;;;;;;;;5053199;28;20779;-78
2021/07/15 04:09:45;;;;;;;53.77;18.60;;;;;;;;;;5053114;28;20524;-78
2021/07/15 04:12:12;;;;;;;52.63;19.63;;;;;;;;;;5053303;28;20408;-81
2021/07/15 04:14:41;;;;;;;46.03;18.47;;;;;;;;;;5052819;28;20452;-80
2021/07/15 04:17:08;;;;;;;44.97;19.00;;;;;;;;;;5051701;28;20489;-80
2021/07/15 04:19:35;;;;;;;51.53;17.00;;;;;;;;;;5053088;28;20515;-77
2021/07/15 04:22:05;;;;;;;37.83;16.60;;;;;;;;;;5052956;28;20408;-79
2021/07/15 04:24:31;;;;;;;43.67;17.13;;;;;;;;;;5052595;28;20776;-81
2021/07/15 04:26:59;;;;;;;47.57;17.20;;;;;;;;;;5052921;28;20443;-81
2021/07/15 04:29:25;;;;;;;48.97;17.47;;;;;;;;;;5056773;28;20778;-78
2021/07/15 04:31:55;;;;;;;44.27;17.37;;;;;;;;;;5057170;28;20408;-78
2021/07/15 04:34:22;;;;;;;52.27;18.60;;;;;;;;;;5055602;28;20443;-79
2021/07/15 04:36:49;;;;;;;50.27;19.30;;;;;;;;;;5057498;28;20419;-78
2021/07/15 04:39:15;;;;;;;36.33;17.77;;;;;;;;;;5057067;28;20790;-80
2021/07/15 04:41:43;;;;;;;58.87;20.20;;;;;;;;;;5057034;28;20426;-80
2021/07/15 04:44:11;;;;;;;56.37;19.43;;;;;;;;;;5056685;28;20477;-80
2021/07/15 04:46:38;;;;;;;45.80;20.13;;;;;;;;;;5056979;28;20490;-79
2021/07/15 04:49:05;;;;;;;49.57;22.00;;;;;;;;;;5055448;28;20478;-80
2021/07/15 04:51:32;;;;;;;51.63;21.60;;;;;;;;;;5056737;28;20782;-80
2021/07/15 04:53:58;;;;;;;42.67;19.30;;;;;;;;;;5056446;28;20403;-78
2021/07/15 04:56:24;;;;;;;41.07;19.23;;;;;;;;;;5056687;28;20408;-78
2021/07/15 04:58:52;;;;;;;50.10;21.43;;;;;;;;;;5056731;28;20423;-79
2021/07/15 05:01:18;;;;;;;47.27;20.57;;;;;;;;;;5056906;28;20407;-79
2021/07/15 05:03:44;;;;;;;38.40;19.10;;;;;;;;;;5056248;28;20911;-79
2021/07/15 05:06:10;;;;;;;52.00;21.20;;;;;;;;;;5056389;28;20439;-78
2021/07/15 05:08:37;;;;;;;46.60;19.00;;;;;;;;;;5056437;28;20463;-78
2021/07/15 05:11:03;;;;;;;43.40;21.03;;;;;;;;;;5056653;28;20404;-81
2021/07/15 05:13:29;;;;;;;44.93;21.17;;;;;;;;;;5055000;28;20801;-78
2021/07/15 05:15:55;;;;;;;46.03;22.33;;;;;;;;;;5055015;28;20797;-80
2021/07/15 05:18:22;;;;;;;53.20;22.87;;;;;;;;;;5054986;28;20503;-80
2021/07/15 05:20:48;;;;;;;50.40;21.27;;;;;;;;;;5056289;28;20408;-78
2021/07/15 05:23:14;;;;;;;46.97;23.40;;;;;;;;;;5055879;28;20777;-78
2021/07/15 05:25:40;;;;;;;47.57;21.73;;;;;;;;;;5056168;28;20518;-79
2021/07/15 05:28:06;;;;;;;42.30;20.60;;;;;;;;;;5055931;28;20559;-79
2021/07/15 05:30:32;;;;;;;43.20;21.20;;;;;;;;;;5055913;28;20419;-78
2021/07/15 05:32:58;;;;;;;40.03;21.53;;;;;;;;;;5055646;28;20461;-80
2021/07/15 05:35:25;;;;;;;31.57;19.70;;;;;;;;;;5055690;28;20486;-79
2021/07/15 05:37:51;;;;;;;30.17;19.07;;;;;;;;;;5054566;28;20458;-80
2021/07/15 05:40:17;;;;;;;31.90;18.50;;;;;;;;;;5055385;28;20461;-80
2021/07/15 05:42:43;;;;;;;26.80;18.63;;;;;;;;;;5055742;28;20828;-79
2021/07/15 05:45:09;;;;;;;29.90;19.27;;;;;;;;;;5055769;28;20530;-80
2021/07/15 05:47:36;;;;;;;31.17;20.57;;;;;;;;;;5055549;28;20454;-80
2021/07/15 05:50:02;;;;;;;32.73;21.87;;;;;;;;;;5055551;28;20512;-80
2021/07/15 05:52:28;;;;;;;25.37;18.97;;;;;;;;;;5054243;28;20439;-79
2021/07/15 05:54:56;;;;;;;23.40;18.87;;;;;;;;;;5055211;28;20507;-79
2021/07/15 05:57:23;;;;;;;23.40;18.33;;;;;;;;;;5055721;28;20404;-79
2021/07/15 05:59:49;;;;;;;22.37;18.60;;;;;;;;;;5055581;28;20415;-80
2021/07/15 06:02:17;;;;;;;23.87;19.50;;;;;;;;;;5054154;28;20896;-80
2021/07/15 06:04:43;;;;;;;23.63;18.37;;;;;;;;;;5053778;28;20493;-80
2021/07/15 06:07:09;;;;;;;21.00;16.93;;;;;;;;;;5055381;28;20408;-80
2021/07/15 06:09:35;;;;;;;22.27;18.40;;;;;;;;;;5055248;28;20967;-79
2021/07/15 06:12:01;;;;;;;21.30;17.63;;;;;;;;;;5053887;28;20495;-80
2021/07/15 06:14:27;;;;;;;26.10;19.10;;;;;;;;;;5054890;28;20424;-80
2021/07/15 06:16:53;;;;;;;23.37;20.30;;;;;;;;;;5055189;28;20785;-80
2021/07/15 06:19:19;;;;;;;25.07;20.37;;;;;;;;;;5055093;28;20423;-80
2021/07/15 06:21:45;;;;;;;23.57;19.60;;;;;;;;;;5053826;28;20419;-80
2021/07/15 06:24:11;;;;;;;22.97;20.10;;;;;;;;;;5054520;28;20798;-80
2021/07/15 06:26:37;;;;;;;30.77;21.97;;;;;;;;;;5054976;28;20416;-80
2021/07/15 06:29:04;;;;;;;24.80;20.60;;;;;;;;;;5053706;28;20459;-80
2021/07/15 06:31:30;;;;;;;24.97;19.77;;;;;;;;;;5054861;28;20412;-80
2021/07/15 06:33:56;;;;;;;25.03;19.90;;;;;;;;;;5054375;28;20385;-80
2021/07/15 06:36:22;;;;;;;25.17;20.67;;;;;;;;;;5054583;28;20514;-79
2021/07/15 06:38:48;;;;;;;26.33;20.53;;;;;;;;;;5054832;28;20471;-81
2021/07/15 06:41:16;;;;;;;26.60;21.27;;;;;;;;;;5053350;28;20430;-80
2021/07/15 06:43:43;;;;;;;27.27;21.23;;;;;;;;;;5054655;28;20419;-80
2021/07/15 06:46:09;;;;;;;24.07;21.20;;;;;;;;;;5054503;28;20428;-82
2021/07/15 06:48:35;;;;;;;27.63;21.53;;;;;;;;;;5053123;28;20463;-80
2021/07/15 06:51:01;;;;;;;26.20;20.10;;;;;;;;;;5053087;28;20941;-80
2021/07/15 06:53:27;;;;;;;31.90;23.10;;;;;;;;;;5036386;28;20398;-80
2021/07/15 06:55:54;;;;;;;30.67;23.30;;;;;;;;;;5054323;28;20431;-80
2021/07/15 06:58:20;;;;;;;31.37;20.90;;;;;;;;;;5054167;28;20451;-80
2021/07/15 07:00:45;;;;;;;24.13;20.97;;;;;;;;;;5053083;28;20424;-79
2021/07/15 07:03:14;;;;;;;29.30;22.07;;;;;;;;;;5053965;28;20893;-80
2021/07/15 07:05:41;;;;;;;28.47;21.70;;;;;;;;;;5054179;28;20420;-81
2021/07/15 07:08:07;;;;;;;24.57;20.83;;;;;;;;;;5054103;28;20888;-80
2021/07/15 07:10:33;;;;;;;25.80;20.77;;;;;;;;;;5054126;28;20830;-80
2021/07/15 07:12:59;;;;;;;24.93;21.10;;;;;;;;;;5053818;28;20400;-79
2021/07/15 07:15:25;;;;;;;23.57;20.40;;;;;;;;;;5053899;28;20777;-80
2021/07/15 07:17:51;;;;;;;24.27;19.83;;;;;;;;;;5054239;28;20473;-80
2021/07/15 07:20:17;;;;;;;23.90;19.00;;;;;;;;;;5053910;28;20499;-80
2021/07/15 07:22:44;;;;;;;22.00;19.63;;;;;;;;;;5052402;28;20416;-83
2021/07/15 07:25:11;;;;;;;25.70;20.23;;;;;;;;;;5053873;28;20850;-79
2021/07/15 07:27:37;;;;;;;23.73;19.40;;;;;;;;;;5053841;28;20420;-80
2021/07/15 07:30:04;;;;;;;25.90;19.77;;;;;;;;;;5053755;28;20526;-80
2021/07/15 07:32:30;;;;;;;22.33;19.50;;;;;;;;;;5053631;28;20419;-80
2021/07/15 07:34:56;;;;;;;26.17;19.50;;;;;;;;;;5053213;28;20766;-80
2021/07/15 07:37:22;;;;;;;23.47;18.60;;;;;;;;;;5053578;28;20495;-80
2021/07/15 07:39:48;;;;;;;23.00;18.67;;;;;;;;;;5053639;28;20458;-80
2021/07/15 07:42:14;;;;;;;19.37;17.33;;;;;;;;;;5053540;28;20415;-80
2021/07/15 07:44:40;;;;;;;21.67;18.70;;;;;;;;;;5051853;28;20431;-80
2021/07/15 07:47:07;;;;;;;20.10;17.87;;;;;;;;;;5053557;28;20386;-80
2021/07/15 07:49:33;;;;;;;25.87;17.27;;;;;;;;;;5052425;28;20525;-80
2021/07/15 07:51:59;;;;;;;22.37;18.03;;;;;;;;;;5053581;28;20753;-80
2021/07/15 07:54:25;;;;;;;23.33;17.77;;;;;;;;;;5053086;28;20435;-80
2021/07/15 07:56:51;;;;;;;21.30;18.03;;;;;;;;;;5053316;28;20753;-80
2021/07/15 07:59:17;;;;;;;20.20;17.83;;;;;;;;;;5053360;28;20416;-80
2021/07/15 08:01:43;;;;;;;19.20;17.17;;;;;;;;;;5053167;28;20399;-81
2021/07/15 08:04:09;;;;;;;20.20;16.77;;;;;;;;;;5051583;28;20518;-79
2021/07/15 08:06:36;;;;;;;18.20;15.27;;;;;;;;;;5051810;28;20479;-80
2021/07/15 08:09:07;;;;;;;15.67;13.70;;;;;;;;;;5053103;28;20558;-80
2021/07/15 08:11:33;;;;;;;16.80;14.67;;;;;;;;;;5053233;28;20458;-80
2021/07/15 08:13:59;;;;;;;14.93;13.43;;;;;;;;;;5051507;28;20409;-79
2021/07/15 08:16:25;;;;;;;14.00;12.70;;;;;;;;;;5051826;28;20412;-80
2021/07/15 08:18:51;;;;;;;15.07;13.23;;;;;;;;;;5052963;28;20654;-80
2021/07/15 08:21:21;;;;;;;13.63;12.17;;;;;;;;;;5053097;28;20499;-80
2021/07/15 08:23:48;;;;;;;14.43;12.03;;;;;;;;;;5053014;28;20386;-80
2021/07/15 08:26:14;;;;;;;14.70;12.07;;;;;;;;;;5051654;28;20387;-81
2021/07/15 08:28:40;;;;;;;10.90;9.80;;;;;;;;;;5051547;28;21025;-80
2021/07/15 08:31:06;;;;;;;9.13;8.17;;;;;;;;;;5052846;28;20526;-80
2021/07/15 08:33:32;;;;;;;8.27;7.47;;;;;;;;;;5052674;28;20411;-80
2021/07/15 08:35:59;;;;;;;8.27;7.37;;;;;;;;;;5051526;28;20427;-80
2021/07/15 08:38:25;;;;;;;6.83;6.13;;;;;;;;;;5053003;28;20782;-80
2021/07/15 08:40:51;;;;;;;5.73;5.23;;;;;;;;;;5052783;28;20416;-81
2021/07/15 08:43:18;;;;;;;6.80;5.53;;;;;;;;;;5052560;28;20416;-81
2021/07/15 08:45:45;;;;;;;9.93;6.70;;;;;;;;;;5051536;28;20425;-81
2021/07/15 08:48:12;;;;;;;7.40;6.70;;;;;;;;;;5051745;28;20795;-80
2021/07/15 08:50:38;;;;;;;7.90;6.73;;;;;;;;;;5052863;28;20466;-80
2021/07/15 08:53:04;;;;;;;6.43;5.83;;;;;;;;;;5052698;28;20817;-81
2021/07/15 08:58:16;;;;;;;7.97;5.03;;;;;;;;;;5053032;28;20458;-80
2021/07/15 09:00:42;;;;;;;5.67;5.13;;;;;;;;;;5052795;28;20420;-80
2021/07/15 09:03:08;;;;;;;6.23;5.20;;;;;;;;;;5052348;28;20872;-81
2021/07/15 09:05:34;;;;;;;5.80;5.17;;;;;;;;;;5051333;28;20526;-80
2021/07/15 09:08:01;;;;;;;7.30;5.33;;;;;;;;;;5052677;28;20879;-80
2021/07/15 09:10:27;;;;;;;8.70;5.60;;;;;;;;;;5051202;28;20452;-80
2021/07/15 09:12:53;;;;;;;5.87;4.70;;;;;;;;;;5052310;28;20946;-80
2021/07/15 09:15:19;;;;;;;6.27;5.67;;;;;;;;;;5054614;28;20530;-81
2021/07/15 09:17:46;;;;;;;6.30;5.70;;;;;;;;;;5056528;28;20383;-80
2021/07/15 09:20:16;;;;;;;6.10;5.50;;;;;;;;;;5056345;28;20407;-80
2021/07/15 09:23:01;;;;;;;5.87;5.27;;;;;;;;;;5054978;28;20398;-80
2021/07/15 09:25:28;;;;;;;6.60;5.00;;;;;;;;;;5055979;28;20505;-81
2021/07/15 09:27:55;;;;;;;6.07;5.47;;;;;;;;;;5056351;28;20422;-80
2021/07/15 09:30:21;;;;;;;5.80;5.23;;;;;;;;;;5055985;28;20408;-80
2021/07/15 09:32:53;;;;;;;5.67;5.17;;;;;;;;;;5055864;28;20404;-81
2021/07/15 09:35:30;;;;;;;5.47;4.97;;;;;;;;;;5055602;28;20447;-81
2021/07/15 09:37:56;;;;;;;4.57;4.13;;;;;;;;;;5055918;28;20785;-80
2021/07/15 09:40:38;;;;;;;6.00;4.70;;;;;;;;;;5055714;28;20382;-80
2021/07/15 09:43:15;;;;;;;4.50;3.97;;;;;;;;;;5037638;28;20420;-81
2021/07/15 09:45:42;;;;;;;4.97;4.53;;;;;;;;;;5054359;28;20932;-80
2021/07/15 09:48:21;;;;;;;5.97;3.80;;;;;;;;;;5055586;28;20382;-80
2021/07/15 09:50:48;;;;;;;6.70;3.60;;;;;;;;;;5055800;28;20836;-80
2021/07/15 09:53:14;;;;;;;5.60;5.10;;;;;;;;;;5053878;28;20470;-81
2021/07/15 09:55:41;;;;;;;4.17;3.87;;;;;;;;;;5055204;28;20479;-81
2021/07/15 09:58:11;;;;;;;4.30;3.90;;;;;;;;;;5053831;28;20924;-80
2021/07/15 10:00:38;;;;;;;4.90;4.50;;;;;;;;;;5053897;28;20477;-80
2021/07/15 10:03:05;;;;;;;4.33;3.93;;;;;;;;;;5054873;28;20774;-80
2021/07/15 10:05:31;;;;;;;5.90;4.03;;;;;;;;;;5055022;28;20445;-80
2021/07/15 10:08:04;;;;;;;3.60;3.30;;;;;;;;;;5055191;28;20415;-80
2021/07/15 10:10:30;;;;;;;3.43;3.13;;;;;;;;;;5055028;28;20416;-80
2021/07/15 10:12:56;;;;;;;3.20;2.90;;;;;;;;;;5053397;28;20916;-80
2021/07/15 10:15:22;;;;;;;3.20;3.00;;;;;;;;;;5054802;28;20419;-80
2021/07/15 10:17:51;;;;;;;2.77;2.57;;;;;;;;;;5053511;28;20435;-80
2021/07/15 10:20:18;;;;;;;2.90;2.30;;;;;;;;;;5054953;28;20478;-80
2021/07/15 10:22:44;;;;;;;5.13;2.50;;;;;;;;;;5054718;28;20872;-80
2021/07/15 10:25:11;;;;;;;2.33;2.00;;;;;;;;;;5053332;28;20523;-80
2021/07/15 10:27:39;;;;;;;2.23;2.03;;;;;;;;;;5054654;28;20379;-80
2021/07/15 10:30:06;;;;;;;1.70;1.60;;;;;;;;;;5054675;28;20463;-80
2021/07/15 10:32:35;;;;;;;1.70;1.60;;;;;;;;;;5054597;28;20389;-82
2021/07/15 10:35:02;;;;;;;2.33;1.80;;;;;;;;;;5054258;28;20535;-81
2021/07/15 10:37:29;;;;;;;1.77;1.67;;;;;;;;;;5053058;28;20455;-81
2021/07/15 10:39:55;;;;;;;1.77;1.60;;;;;;;;;;5054004;28;20391;-80
2021/07/15 10:42:21;;;;;;;1.80;1.70;;;;;;;;;;5054229;28;20414;-81
2021/07/15 10:44:47;;;;;;;4.10;1.67;;;;;;;;;;5052481;28;20958;-80
2021/07/15 10:47:13;;;;;;;2.30;2.10;;;;;;;;;;5053074;28;20410;-80
2021/07/15 10:49:41;;;;;;;4.03;2.30;;;;;;;;;;5054302;28;20442;-81
2021/07/15 10:52:07;;;;;;;2.90;2.23;;;;;;;;;;5054514;28;20421;-81
2021/07/15 10:54:35;;;;;;;2.67;2.20;;;;;;;;;;5052532;28;20464;-80
2021/07/15 10:57:01;;;;;;;4.17;2.00;;;;;;;;;;5053090;28;20390;-81
2021/07/15 10:59:28;;;;;;;3.50;2.40;;;;;;;;;;5054378;28;20448;-81
2021/07/15 11:01:55;;;;;;;3.07;2.10;;;;;;;;;;5053945;28;20446;-81
2021/07/15 11:04:33;;;;;;;3.20;2.90;;;;;;;;;;5053808;28;20507;-81
2021/07/15 11:07:02;;;;;;;5.20;2.20;;;;;;;;;;5052939;28;20422;-81
2021/07/15 11:09:36;;;;;;;14.17;2.70;;;;;;;;;;5054131;28;20464;-81
2021/07/15 11:12:03;;;;;;;8.20;2.27;;;;;;;;;;5052708;28;20767;-81
2021/07/15 11:14:35;;;;;;;2.10;2.00;;;;;;;;;;5053485;28;20466;-81
2021/07/15 11:17:02;;;;;;;2.67;2.30;;;;;;;;;;5053554;28;20390;-81
2021/07/15 11:19:46;;;;;;;2.53;2.33;;;;;;;;;;5053593;28;20419;-81
2021/07/15 11:22:32;;;;;;;7.50;2.93;;;;;;;;;;5053625;28;20404;-81
2021/07/15 11:25:04;;;;;;;3.03;2.73;;;;;;;;;;5053506;28;20423;-81
2021/07/15 11:27:31;;;;;;;4.40;3.37;;;;;;;;;;5052442;28;20383;-80
2021/07/15 11:29:58;;;;;;;4.03;3.00;;;;;;;;;;5053333;28;20451;-81
2021/07/15 11:32:26;;;;;;;4.27;2.90;;;;;;;;;;5053176;28;20501;-81
2021/07/15 11:34:54;;;;;;;3.50;3.20;;;;;;;;;;5052672;28;20542;-81
2021/07/15 11:37:26;;;;;;;3.93;3.00;;;;;;;;;;5051734;28;20423;-81
2021/07/15 11:39:56;;;;;;;3.07;2.87;;;;;;;;;;5053307;28;20895;-80
2021/07/15 11:42:26;;;;;;;3.50;2.90;;;;;;;;;;5053308;28;20393;-81
2021/07/15 11:45:00;;;;;;;2.83;2.53;;;;;;;;;;5051860;28;20451;-81
2021/07/15 11:48:04;;;;;;;3.53;2.50;;;;;;;;;;5053439;28;20412;-81
2021/07/15 11:50:32;;;;;;;5.20;2.60;;;;;;;;;;4991885;28;20464;-80
2021/07/15 11:53:17;;;;;;;2.70;2.20;;;;;;;;;;4991870;28;20410;-81
2021/07/15 11:55:48;;;;;;;3.17;2.97;;;;;;;;;;5029824;28;20978;-81
2021/07/15 11:58:32;;;;;;;3.60;3.13;;;;;;;;;;5053480;28;20910;-81
2021/07/15 12:01:19;;;;;;;4.40;4.00;;;;;;;;;;5053296;28;20408;-81
2021/07/15 12:03:57;;;;;;;6.17;3.47;;;;;;;;;;5052986;28;20466;-80
2021/07/15 12:06:24;;;;;;;3.13;2.80;;;;;;;;;;5053144;28;20765;-81
2021/07/15 12:08:50;;;;;;;2.80;2.60;;;;;;;;;;5051833;28;20456;-81
2021/07/15 12:11:20;;;;;;;3.00;2.50;;;;;;;;;;5053501;28;20435;-80
2021/07/15 12:13:49;;;;;;;4.27;2.40;;;;;;;;;;5052876;28;20473;-80
2021/07/15 12:16:18;;;;;;;3.00;2.80;;;;;;;;;;5053214;28;20379;-81
2021/07/15 12:18:44;;;;;;;2.87;2.17;;;;;;;;;;5052959;28;20422;-81
2021/07/15 12:21:10;;;;;;;2.70;2.23;;;;;;;;;;5053129;28;20412;-81
2021/07/15 12:23:37;;;;;;;2.50;2.30;;;;;;;;;;5052831;28;20724;-81
2021/07/15 12:26:04;;;;;;;3.07;2.70;;;;;;;;;;5051731;28;20443;-80
2021/07/15 12:28:30;;;;;;;3.70;3.13;;;;;;;;;;5052861;28;20458;-80
2021/07/15 12:31:02;;;;;;;4.53;3.30;;;;;;;;;;5052697;28;20382;-81
2021/07/15 12:33:36;;;;;;;3.27;2.97;;;;;;;;;;5051399;28;20423;-81
2021/07/15 12:36:08;;;;;;;10.97;3.90;;;;;;;;;;5051417;28;20430;-81
2021/07/15 12:38:34;;;;;;;4.17;3.07;;;;;;;;;;5051546;28;20399;-81
2021/07/15 12:41:11;;;;;;;5.20;3.60;;;;;;;;;;5052647;28;20398;-80
2021/07/15 12:43:39;;;;;;;6.87;3.97;;;;;;;;;;5052706;28;20410;-81
2021/07/15 12:46:17;;;;;;;6.37;4.13;;;;;;;;;;5051453;28;20436;-81
2021/07/15 12:48:48;;;;;;;9.80;4.90;;;;;;;;;;5053722;28;20430;-81
2021/07/15 12:51:15;;;;;;;5.60;4.43;;;;;;;;;;5055470;28;20504;-81
2021/07/15 12:53:44;;;;;;;8.90;4.53;;;;;;;;;;5056402;28;20444;-79
2021/07/15 12:56:10;;;;;;;6.67;4.60;;;;;;;;;;5055366;28;20415;-80
2021/07/15 12:58:38;;;;;;;5.57;4.50;;;;;;;;;;5055644;28;20416;-80
2021/07/15 13:01:05;;;;;;;7.50;5.33;;;;;;;;;;5056495;28;20416;-80
2021/07/15 13:03:31;;;;;;;7.77;5.43;;;;;;;;;;5056486;28;20460;-80
2021/07/15 13:05:57;;;;;;;6.93;4.90;;;;;;;;;;5055279;28;20446;-80
2021/07/15 13:14:14;;;;;;;7.53;5.37;;;;;;;;;;4994964;28;20412;-80
2021/07/15 13:16:43;;;;;;;8.03;5.70;;;;;;;;;;5023582;28;20385;-80
2021/07/15 13:19:14;;;;;;;4.63;4.23;;;;;;;;;;5055977;28;20469;-81
2021/07/15 13:21:40;;;;;;;7.23;4.60;;;;;;;;;;5054942;28;20394;-80
2021/07/15 13:24:08;;;;;;;6.80;4.77;;;;;;;;;;5055708;28;20409;-80
2021/07/15 13:26:48;;;;;;;5.97;4.63;;;;;;;;;;5054897;28;20441;-80
2021/07/15 13:29:14;;;;;;;6.33;4.87;;;;;;;;;;5055878;28;20509;-80
2021/07/15 13:31:40;;;;;;;5.33;4.80;;;;;;;;;;5056025;28;20389;-80
2021/07/15 13:34:08;;;;;;;6.70;5.47;;;;;;;;;;5054577;28;20869;-79
2021/07/15 13:36:34;;;;;;;10.00;4.20;;;;;;;;;;5056151;28;20788;-79
2021/07/15 13:39:00;;;;;;;5.70;4.87;;;;;;;;;;5055837;28;20391;-80
2021/07/15 13:41:30;;;;;;;5.50;4.30;;;;;;;;;;5038030;28;20506;-80
2021/07/15 13:44:10;;;;;;;5.00;4.27;;;;;;;;;;5055433;28;20408;-81
2021/07/15 13:46:37;;;;;;;7.70;4.60;;;;;;;;;;5055839;28;20407;-80
2021/07/15 13:49:04;;;;;;;5.70;4.50;;;;;;;;;;5054419;28;20544;-79
2021/07/15 13:51:31;;;;;;;4.53;4.13;;;;;;;;;;5055667;28;20436;-80
2021/07/15 13:53:57;;;;;;;6.00;4.30;;;;;;;;;;5053971;28;20412;-81
2021/07/15 13:56:24;;;;;;;6.63;4.27;;;;;;;;;;5055973;28;20931;-79
2021/07/15 13:58:51;;;;;;;7.20;3.90;;;;;;;;;;5055685;28;20393;-81
2021/07/15 14:01:28;;;;;;;5.87;5.10;;;;;;;;;;5054055;28;20394;-80
2021/07/15 14:03:54;;;;;;;5.10;4.53;;;;;;;;;;5053793;28;20424;-80
2021/07/15 14:06:21;;;;;;;6.80;5.07;;;;;;;;;;5055346;28;20779;-80
2021/07/15 14:08:56;;;;;;;5.13;4.63;;;;;;;;;;5055214;28;20774;-80
2021/07/15 14:11:23;;;;;;;8.30;4.70;;;;;;;;;;5055647;28;20382;-81
2021/07/15 14:13:49;;;;;;;8.27;4.50;;;;;;;;;;5054896;28;20793;-80
2021/07/15 14:16:16;;;;;;;5.70;4.90;;;;;;;;;;5054351;28;20440;-80
2021/07/15 14:18:43;;;;;;;5.23;4.83;;;;;;;;;;5055363;28;20391;-80
2021/07/15 14:21:11;;;;;;;7.37;4.57;;;;;;;;;;5055254;28;20489;-80
2021/07/15 14:23:37;;;;;;;5.20;4.70;;;;;;;;;;5054695;28;20383;-79
2021/07/15 14:26:05;;;;;;;5.87;4.67;;;;;;;;;;5054999;28;20414;-80
2021/07/15 14:28:31;;;;;;;4.80;4.40;;;;;;;;;;5054871;28;20438;-79
2021/07/15 14:30:57;;;;;;;4.77;4.37;;;;;;;;;;5053703;28;20416;-80
2021/07/15 14:33:23;;;;;;;9.13;6.10;;;;;;;;;;5053393;28;20442;-80
2021/07/15 14:35:51;;;;;;;5.03;4.50;;;;;;;;;;5054540;28;20443;-79
2021/07/15 14:38:18;;;;;;;6.63;4.80;;;;;;;;;;5053593;28;20402;-80
2021/07/15 14:40:44;;;;;;;10.50;4.50;;;;;;;;;;5054701;28;20390;-79
2021/07/15 14:43:12;;;;;;;7.03;5.17;;;;;;;;;;5054363;28;20958;-80
2021/07/15 14:45:38;;;;;;;6.80;6.00;;;;;;;;;;5054415;28;20424;-80